createdAt,value
2023-03-22T00:04:15.786Z,39.55
2023-03-22T00:09:17.391Z,39.42
2023-03-22T00:14:19.067Z,29.23
2023-03-22T00:19:20.559Z,34.97
2023-03-22T00:24:21.927Z,28.10
2023-03-22T00:34:36.386Z,30.75
2023-03-22T00:39:37.805Z,27.35
2023-03-22T00:44:39.211Z,29.70
2023-03-22T00:49:41.083Z,31.55
2023-03-22T00:54:42.440Z,32.03
2023-03-22T00:59:44.323Z,60.38
2023-03-22T01:04:46.467Z,72.07
2023-03-22T01:09:48.749Z,81.78
2023-03-22T01:14:50.150Z,77.78
2023-03-22T01:19:51.560Z,72.40
2023-03-22T01:30:07.146Z,62.38
2023-03-22T01:35:09.168Z,60.88
2023-03-22T01:40:12.872Z,53.53
2023-03-22T01:45:14.208Z,55.30
2023-03-22T01:50:17.197Z,58.22
2023-03-22T01:55:23.232Z,62.67
2023-03-22T02:00:24.807Z,52.95
2023-03-22T02:05:26.601Z,45.55
2023-03-22T02:10:28.533Z,49.15
2023-03-22T02:15:38.431Z,50.92
2023-03-22T02:21:02.436Z,43.85
2023-03-22T02:26:19.006Z,36.63
2023-03-22T02:32:09.761Z,41.70
2023-03-22T02:37:17.302Z,37.03
2023-03-22T02:47:43.403Z,34.40
2023-03-22T02:57:58.061Z,30.00
2023-03-22T03:03:11.552Z,27.45
2023-03-22T03:08:15.445Z,32.28
2023-03-22T03:13:18.837Z,33.95
2023-03-22T03:18:27.535Z,31.05
2023-03-22T03:24:00.374Z,30.20
2023-03-22T03:29:11.515Z,35.70
2023-03-22T03:34:21.974Z,30.98
2023-03-22T03:39:27.794Z,33.13
2023-03-22T03:44:31.457Z,37.65
2023-03-22T03:49:32.824Z,33.33
2023-03-22T03:54:34.282Z,35.17
2023-03-22T03:59:35.758Z,40.10
2023-03-22T04:04:37.162Z,44.85
2023-03-22T04:09:39.169Z,49.15
2023-03-22T04:14:41.601Z,51.80
2023-03-22T04:19:44.576Z,55.83
2023-03-22T04:24:50.105Z,55.60
2023-03-22T04:29:52.132Z,54.58
2023-03-22T04:34:53.582Z,59.35
2023-03-22T04:39:54.969Z,57.08
2023-03-22T04:44:56.349Z,72.70
2023-03-22T04:49:57.679Z,72.22
2023-03-22T04:54:59.054Z,55.97
2023-03-22T05:00:00.705Z,59.63
2023-03-22T05:05:02.043Z,53.08
2023-03-22T05:10:03.664Z,48.42
2023-03-22T05:15:06.567Z,44.15
2023-03-22T05:20:09.381Z,46.83
2023-03-22T05:25:11.534Z,42.75
2023-03-22T05:30:13.297Z,46.33
2023-03-22T05:35:14.713Z,45.35
2023-03-22T05:40:16.864Z,39.25
2023-03-22T05:45:18.758Z,47.83
2023-03-22T05:50:22.218Z,57.15
2023-03-22T05:55:23.783Z,45.30
2023-03-22T06:00:25.752Z,51.92
2023-03-22T06:05:27.328Z,45.10
2023-03-22T06:10:29.212Z,58.47
2023-03-22T06:15:30.917Z,53.22
2023-03-22T06:20:32.392Z,47.42
2023-03-22T06:25:34.130Z,50.30
2023-03-22T06:30:35.910Z,54.50
2023-03-22T06:35:37.363Z,45.20
2023-03-22T06:40:39.308Z,49.95
2023-03-22T06:45:40.879Z,44.63
2023-03-22T06:50:44.531Z,49.35
2023-03-22T06:55:46.077Z,41.95
2023-03-22T07:00:47.412Z,44.03
2023-03-22T07:05:48.802Z,28.20
2023-03-22T07:10:51.244Z,22.48
2023-03-22T07:16:01.097Z,15.85
2023-03-22T07:21:02.554Z,17.00
2023-03-22T07:26:04.000Z,23.10
2023-03-22T07:31:10.010Z,14.13
2023-03-22T07:36:11.805Z,16.60
2023-03-22T07:41:13.141Z,17.08
2023-03-22T07:46:14.513Z,16.30
2023-03-22T07:51:16.858Z,13.80
2023-03-22T07:56:18.247Z,17.73
2023-03-22T08:01:20.108Z,12.10
2023-03-22T08:06:21.636Z,12.07
2023-03-22T08:11:23.003Z,8.15
2023-03-22T08:16:24.401Z,13.63
2023-03-22T08:21:26.035Z,11.55
2023-03-22T08:26:27.694Z,11.07
2023-03-22T08:31:29.371Z,10.23
2023-03-22T08:36:31.025Z,10.18
2023-03-22T08:41:32.374Z,11.73
2023-03-22T08:46:33.806Z,10.20
2023-03-22T08:51:35.498Z,6.93
2023-03-22T08:56:38.114Z,8.85
2023-03-22T09:01:39.674Z,4.45
2023-03-22T09:06:44.121Z,6.03
2023-03-22T09:11:45.442Z,5.55
2023-03-22T09:16:47.747Z,7.07
2023-03-22T09:21:49.946Z,7.63
2023-03-22T09:26:51.534Z,6.38
2023-03-22T09:31:53.476Z,3.90
2023-03-22T09:36:56.740Z,7.90
2023-03-22T09:42:02.226Z,4.13
2023-03-22T09:47:05.403Z,5.53
2023-03-22T09:52:13.939Z,6.32
2023-03-22T09:57:18.206Z,7.22
2023-03-22T10:02:47.624Z,5.43
2023-03-22T10:08:13.896Z,3.05
2023-03-22T10:13:39.601Z,6.85
2023-03-22T10:18:47.036Z,4.70
2023-03-22T10:23:56.941Z,3.22
2023-03-22T10:29:12.342Z,3.47
2023-03-22T10:34:43.494Z,2.58
2023-03-22T10:39:49.703Z,3.95
2023-03-22T10:45:02.501Z,0.82
2023-03-22T10:50:11.487Z,1.60
2023-03-22T10:55:15.613Z,0.60
2023-03-22T11:00:17.481Z,2.67
2023-03-22T11:05:28.351Z,2.50
2023-03-22T11:10:34.376Z,3.88
2023-03-22T11:15:40.233Z,1.40
2023-03-22T11:20:54.062Z,44.22
2023-03-22T11:25:58.561Z,3.13
2023-03-22T11:31:12.535Z,1.92
2023-03-22T11:36:18.811Z,1.23
2023-03-22T11:41:23.933Z,1.37
2023-03-22T11:46:25.554Z,3.63
2023-03-22T11:51:32.488Z,1.05
2023-03-22T11:56:34.438Z,1.60
2023-03-22T12:01:42.089Z,1.02
2023-03-22T12:06:43.609Z,1.63
2023-03-22T12:11:48.842Z,3.58
2023-03-22T12:16:55.719Z,3.38
2023-03-22T12:21:58.063Z,2.38
2023-03-22T12:27:14.492Z,0.80
2023-03-22T12:32:21.990Z,2.57
2023-03-22T12:37:31.476Z,1.98
2023-03-22T12:42:59.700Z,3.72
2023-03-22T12:48:40.897Z,1.48
2023-03-22T12:53:52.307Z,1.40
2023-03-22T12:59:02.644Z,0.90
2023-03-22T13:04:52.044Z,0.70
2023-03-22T13:09:53.440Z,1.83
2023-03-22T13:15:41.160Z,0.32
2023-03-22T13:20:43.755Z,0.50
2023-03-22T13:26:04.137Z,1.38
2023-03-22T13:31:06.531Z,0.40
2023-03-22T13:36:22.961Z,0.85
2023-03-22T13:41:28.785Z,0.30
2023-03-22T13:46:36.297Z,1.33
2023-03-22T13:51:37.942Z,1.05
2023-03-22T13:56:42.246Z,2.00
2023-03-22T14:01:49.407Z,1.63
2023-03-22T14:07:07.648Z,1.70
2023-03-22T14:12:21.168Z,0.52
2023-03-22T14:17:56.070Z,1.65
